Praslin Airport

Jump to: basic info | weather | frequencies | runways | comments

Related pages: nearby airports | nearby navaids | notams | map

Basic information (top)

Codes: PRI FSPP
Location: lon -4.319290, lat 55.691399, elev 10 ft / 3 m msl
Status: medium_airport
Scheduled airline service: yes
Links: Wikipedia Mobile

Weather (top)

Current conditions for Seychelles International Airport 24nm (44km) SSW (rec'd 2014/09/20 13:00Z):

FSIA 201300Z 14010KT 9999 FEW006 BKN016 BKN080 26/25 Q1010 NOSIG

Airport forecast (rec'd 2012/02/23 12:00Z):

TAF FSPP 231130Z 2312/2324 35010KT 9999 SCT018 BKN250 
      TEMPO 2312/2316 -SHRA FEW014CB BKN016 
      TEMPO 2400/2418 -SHRA FEW014CB BKN016

Frequencies (top)

Verify before use: may be inaccurate or out of date.

GND: 121.8 MHz (GRD)
TWR: 122.3 MHz (TWR)

Runways (top)

15/33: 4,318 x 104 ft (1,316 x 32 m) — paved — lighted — threshold 15 displaced 676 ft (206 m) — threshold 33 displaced 256 ft (78 m)

Latest comments (top)

No comments yet for Praslin Airport

More... (top)

See also NOTAMs and nearby airports and navaids, or visit the Praslin Airport page at the main OurAirports website..